createdAt,value
2023-04-26T00:00:46.430Z,33.51
2023-04-26T00:01:46.468Z,33.50
2023-04-26T00:02:46.601Z,33.51
2023-04-26T00:03:46.800Z,33.50
2023-04-26T00:04:46.820Z,33.50
2023-04-26T00:05:46.777Z,33.51
2023-04-26T00:06:46.724Z,33.50
2023-04-26T00:07:46.790Z,33.51
2023-04-26T00:08:46.969Z,33.50
2023-04-26T00:09:46.865Z,33.51
2023-04-26T00:10:46.922Z,33.52
2023-04-26T00:11:46.954Z,33.51
2023-04-26T00:12:46.996Z,33.49
2023-04-26T00:13:47.457Z,33.49
2023-04-26T00:14:47.125Z,33.52
2023-04-26T00:15:47.155Z,33.49
2023-04-26T00:16:47.415Z,33.50
2023-04-26T00:17:47.308Z,33.46
2023-04-26T00:18:47.350Z,33.50
2023-04-26T00:19:47.405Z,33.49
2023-04-26T00:20:47.427Z,33.49
2023-04-26T00:21:47.494Z,33.51
2023-04-26T00:22:47.549Z,33.50
2023-04-26T00:23:47.573Z,33.48
2023-04-26T00:24:47.665Z,33.52
2023-04-26T00:25:47.717Z,33.50
2023-04-26T00:26:47.727Z,33.49
2023-04-26T00:27:47.837Z,33.51
2023-04-26T00:28:47.960Z,33.49
2023-04-26T00:29:47.931Z,33.50
2023-04-26T00:30:47.968Z,33.49
2023-04-26T00:31:48.085Z,33.48
2023-04-26T00:32:48.131Z,33.50
2023-04-26T00:33:48.134Z,33.47
2023-04-26T00:34:48.207Z,33.48
2023-04-26T00:35:48.248Z,33.48
2023-04-26T00:36:48.327Z,33.51
2023-04-26T00:37:48.375Z,33.48
2023-04-26T00:38:48.432Z,33.47
2023-04-26T00:39:48.453Z,33.48
2023-04-26T00:40:48.537Z,33.48
2023-04-26T00:41:48.559Z,33.49
2023-04-26T00:42:48.620Z,33.48
2023-04-26T00:43:48.684Z,33.47
2023-04-26T00:44:48.745Z,33.49
2023-04-26T00:45:48.859Z,33.46
2023-04-26T00:46:48.851Z,33.48
2023-04-26T00:47:48.987Z,33.50
2023-04-26T00:48:48.970Z,33.48
2023-04-26T00:49:49.021Z,33.46
2023-04-26T00:50:49.149Z,33.48
2023-04-26T00:51:49.108Z,33.47
2023-04-26T00:52:49.205Z,33.46
2023-04-26T00:53:49.254Z,33.48
2023-04-26T00:54:49.297Z,33.45
2023-04-26T00:55:49.394Z,33.46
2023-04-26T00:56:49.417Z,33.46
2023-04-26T00:57:49.453Z,33.47
2023-04-26T00:58:50.064Z,33.46
2023-04-26T00:59:50.475Z,33.47
2023-04-26T01:00:49.725Z,33.46
2023-04-26T01:01:49.718Z,33.44
2023-04-26T01:02:49.964Z,33.44
2023-04-26T01:03:49.924Z,33.44
2023-04-26T01:04:49.910Z,33.44
2023-04-26T01:05:49.993Z,33.45
2023-04-26T01:06:50.002Z,33.44
2023-04-26T01:07:50.069Z,33.44
2023-04-26T01:08:50.336Z,33.47
2023-04-26T01:09:50.237Z,33.46
2023-04-26T01:10:50.236Z,33.46
2023-04-26T01:11:50.308Z,33.46
2023-04-26T01:12:50.405Z,33.44
2023-04-26T01:13:50.475Z,33.45
2023-04-26T01:14:50.514Z,33.47
2023-04-26T01:15:50.558Z,33.46
2023-04-26T01:16:50.662Z,33.45
2023-04-26T01:17:50.686Z,33.45
2023-04-26T01:18:51.121Z,33.45
2023-04-26T01:19:50.780Z,33.44
2023-04-26T01:20:50.856Z,33.44
2023-04-26T01:21:50.926Z,33.47
2023-04-26T01:22:50.983Z,33.44
2023-04-26T01:23:51.051Z,33.46
2023-04-26T01:24:51.102Z,33.47
2023-04-26T01:25:51.177Z,33.44
2023-04-26T01:26:51.245Z,33.46
2023-04-26T01:27:51.290Z,33.45
2023-04-26T01:28:51.463Z,33.43
2023-04-26T01:29:51.432Z,33.45
2023-04-26T01:30:51.531Z,33.44
2023-04-26T01:31:51.556Z,33.45
2023-04-26T01:32:51.631Z,33.48
2023-04-26T01:33:51.958Z,33.45
2023-04-26T01:34:51.704Z,33.45
2023-04-26T01:35:51.780Z,33.42
2023-04-26T01:36:51.848Z,33.44
2023-04-26T01:37:51.910Z,33.44
2023-04-26T01:38:52.139Z,33.45
2023-04-26T01:39:52.075Z,33.44
2023-04-26T01:40:52.115Z,33.43
2023-04-26T01:41:52.203Z,33.43
2023-04-26T01:42:52.250Z,33.43
2023-04-26T01:43:52.309Z,33.45
2023-04-26T01:44:52.351Z,33.46
2023-04-26T01:45:52.516Z,33.42
2023-04-26T01:46:52.493Z,33.44
2023-04-26T01:47:52.614Z,33.42
2023-04-26T01:48:52.785Z,33.44
2023-04-26T01:49:52.664Z,33.45
2023-04-26T01:50:52.740Z,33.45
2023-04-26T01:51:52.769Z,33.44
2023-04-26T01:52:52.850Z,33.42
2023-04-26T01:53:52.937Z,33.43
2023-04-26T01:54:52.977Z,33.43
2023-04-26T01:55:53.034Z,33.44
2023-04-26T01:56:53.093Z,33.44
2023-04-26T01:57:53.177Z,33.43
2023-04-26T01:58:53.462Z,33.41
2023-04-26T01:59:53.287Z,33.42
2023-04-26T02:00:53.351Z,33.43
2023-04-26T02:01:53.424Z,33.42
2023-04-26T02:02:53.544Z,33.43
2023-04-26T02:03:53.595Z,33.42
2023-04-26T02:04:53.590Z,33.41
2023-04-26T02:05:53.653Z,33.44
2023-04-26T02:06:53.819Z,33.42
2023-04-26T02:07:53.851Z,33.43
2023-04-26T02:08:54.135Z,33.43
2023-04-26T02:09:53.880Z,33.43
2023-04-26T02:10:53.961Z,33.40
2023-04-26T02:11:54.009Z,33.42
2023-04-26T02:12:54.099Z,33.43
2023-04-26T02:13:54.191Z,33.42
2023-04-26T02:14:54.194Z,33.42
2023-04-26T02:15:54.354Z,33.40
2023-04-26T02:16:54.357Z,33.41
2023-04-26T02:17:54.487Z,33.40
2023-04-26T02:18:54.722Z,33.40
2023-04-26T02:19:54.555Z,33.42
2023-04-26T02:20:54.608Z,33.42
2023-04-26T02:21:54.678Z,33.43
2023-04-26T02:22:55.484Z,33.43
2023-04-26T02:23:54.801Z,33.41
2023-04-26T02:24:54.888Z,33.42
2023-04-26T02:25:54.892Z,33.42
2023-04-26T02:26:55.240Z,33.42
2023-04-26T02:27:55.039Z,33.43
2023-04-26T02:28:55.493Z,33.42
2023-04-26T02:29:55.165Z,33.42
2023-04-26T02:30:55.239Z,33.42
2023-04-26T02:31:55.315Z,33.42
2023-04-26T02:32:55.395Z,33.43
2023-04-26T02:33:55.397Z,33.40
2023-04-26T02:34:55.452Z,33.42
2023-04-26T02:35:55.541Z,33.43
2023-04-26T02:36:55.604Z,33.42
2023-04-26T02:37:55.670Z,33.42
2023-04-26T02:38:56.012Z,33.42
2023-04-26T02:39:55.791Z,33.40
2023-04-26T02:40:55.858Z,33.43
2023-04-26T02:41:55.921Z,33.41
2023-04-26T02:42:56.020Z,33.41
2023-04-26T02:43:56.017Z,33.41
2023-04-26T02:44:56.069Z,33.43
2023-04-26T02:45:56.085Z,33.41
2023-04-26T02:46:56.187Z,33.41
2023-04-26T02:47:56.270Z,33.43
2023-04-26T02:48:56.509Z,33.42
2023-04-26T02:49:56.325Z,33.40
2023-04-26T02:50:56.380Z,33.43
2023-04-26T02:51:56.477Z,33.43
2023-04-26T02:52:56.485Z,33.40
2023-04-26T02:53:56.997Z,33.41
2023-04-26T02:54:56.611Z,33.42
2023-04-26T02:55:56.682Z,33.41
2023-04-26T02:56:56.718Z,33.40
2023-04-26T02:57:56.773Z,33.41
2023-04-26T02:58:56.819Z,33.41
2023-04-26T02:59:56.876Z,33.41
2023-04-26T03:00:58.306Z,33.40
2023-04-26T03:01:56.989Z,33.40
2023-04-26T03:02:57.064Z,33.42
2023-04-26T03:03:57.029Z,33.42
2023-04-26T03:04:56.912Z,33.40
2023-04-26T03:05:56.913Z,33.40
2023-04-26T03:06:56.897Z,33.40
2023-04-26T03:07:56.885Z,33.39
2023-04-26T03:08:56.898Z,33.40
2023-04-26T03:09:56.874Z,33.38
2023-04-26T03:10:56.872Z,33.39
2023-04-26T03:11:56.850Z,33.41
2023-04-26T03:12:56.849Z,33.41
2023-04-26T03:13:56.856Z,33.38
2023-04-26T03:14:56.846Z,33.41
2023-04-26T03:15:56.860Z,33.41
2023-04-26T03:16:56.910Z,33.39
2023-04-26T03:17:56.870Z,33.39
2023-04-26T03:18:56.887Z,33.38
2023-04-26T03:19:56.855Z,33.39
2023-04-26T03:20:56.807Z,33.43
2023-04-26T03:21:56.812Z,33.40
2023-04-26T03:22:56.783Z,33.41
2023-04-26T03:23:56.798Z,33.41
2023-04-26T03:24:56.804Z,33.38
2023-04-26T03:25:56.767Z,33.39
2023-04-26T03:26:56.774Z,33.39
2023-04-26T03:27:56.808Z,33.40
2023-04-26T03:28:56.762Z,33.38
2023-04-26T03:29:56.740Z,33.39
2023-04-26T03:30:56.781Z,33.39
2023-04-26T03:31:56.777Z,33.38
2023-04-26T03:32:56.751Z,33.39
2023-04-26T03:33:56.758Z,33.38
2023-04-26T03:34:56.859Z,33.38
2023-04-26T03:35:56.880Z,33.41
2023-04-26T03:36:56.952Z,33.38
2023-04-26T03:37:58.608Z,33.38
2023-04-26T03:38:57.034Z,33.36
2023-04-26T03:39:58.048Z,33.40
2023-04-26T03:40:57.146Z,33.37
2023-04-26T03:41:57.159Z,33.38
2023-04-26T03:42:57.231Z,33.38
2023-04-26T03:43:57.317Z,33.38
2023-04-26T03:44:57.375Z,33.36
2023-04-26T03:45:57.421Z,33.36
2023-04-26T03:46:57.429Z,33.37
2023-04-26T03:47:57.497Z,33.37
2023-04-26T03:48:57.512Z,33.38
2023-04-26T03:49:57.605Z,33.37
2023-04-26T03:50:57.617Z,33.36
2023-04-26T03:51:57.665Z,33.37
2023-04-26T03:52:57.718Z,33.37
2023-04-26T03:53:57.814Z,33.37
2023-04-26T03:54:57.832Z,33.39
2023-04-26T03:55:57.933Z,33.36
2023-04-26T03:56:57.984Z,33.36
2023-04-26T03:57:59.025Z,33.39
2023-04-26T03:58:58.114Z,33.37
2023-04-26T03:59:58.144Z,33.36
2023-04-26T04:00:58.227Z,33.37
2023-04-26T04:01:58.358Z,33.37
2023-04-26T04:02:58.476Z,33.39
2023-04-26T04:03:58.755Z,33.37
2023-04-26T04:04:58.616Z,33.39
2023-04-26T04:05:58.451Z,33.37
2023-04-26T04:06:58.534Z,33.36
2023-04-26T04:07:58.563Z,33.38
2023-04-26T04:08:58.658Z,33.36
2023-04-26T04:09:58.687Z,33.35
2023-04-26T04:10:58.700Z,33.36
2023-04-26T04:11:58.740Z,33.36
2023-04-26T04:12:58.809Z,33.36
2023-04-26T04:13:58.846Z,33.38
2023-04-26T04:14:58.917Z,33.34
2023-04-26T04:15:58.994Z,33.35
2023-04-26T04:16:58.989Z,33.36
2023-04-26T04:17:59.094Z,33.35
2023-04-26T04:18:59.064Z,33.38
2023-04-26T04:19:59.130Z,33.36
2023-04-26T04:20:59.146Z,33.35
2023-04-26T04:21:59.192Z,33.34
2023-04-26T04:22:59.285Z,33.37
2023-04-26T04:23:59.353Z,33.38
2023-04-26T04:24:59.499Z,33.36
2023-04-26T04:26:00.113Z,33.37
2023-04-26T04:26:59.519Z,33.34
2023-04-26T04:27:59.551Z,33.36
2023-04-26T04:28:59.628Z,33.37
2023-04-26T04:30:00.026Z,33.34
2023-04-26T04:30:59.797Z,33.37
2023-04-26T04:31:59.786Z,33.35
2023-04-26T04:32:59.908Z,33.37
2023-04-26T04:33:59.867Z,33.36
2023-04-26T04:34:59.914Z,33.34
2023-04-26T04:35:59.963Z,33.33
2023-04-26T04:37:00.002Z,33.35
2023-04-26T04:38:00.074Z,33.35
2023-04-26T04:39:00.136Z,33.34
2023-04-26T04:40:01.029Z,33.35
2023-04-26T04:41:00.216Z,33.32
2023-04-26T04:42:00.247Z,33.34
2023-04-26T04:43:00.282Z,33.32
2023-04-26T04:44:00.354Z,33.35
2023-04-26T04:45:00.410Z,33.33
2023-04-26T04:46:00.471Z,33.31
2023-04-26T04:47:00.580Z,33.34
2023-04-26T04:48:00.565Z,33.33
2023-04-26T04:49:00.631Z,33.34
2023-04-26T04:50:00.707Z,33.35
2023-04-26T04:51:00.719Z,33.32
2023-04-26T04:52:00.768Z,33.33
2023-04-26T04:53:00.806Z,33.33
2023-04-26T04:54:00.891Z,33.33
2023-04-26T04:55:00.886Z,33.31
2023-04-26T04:56:00.955Z,33.32
2023-04-26T04:57:00.987Z,33.32
2023-04-26T04:58:01.051Z,33.33
2023-04-26T04:59:01.106Z,33.31
2023-04-26T05:00:01.161Z,33.30
2023-04-26T05:01:01.311Z,33.31
2023-04-26T05:02:01.222Z,33.31
2023-04-26T05:03:01.458Z,33.31
2023-04-26T05:04:01.418Z,33.29
2023-04-26T05:05:01.434Z,33.30
2023-04-26T05:06:01.400Z,33.30
2023-04-26T05:07:01.451Z,33.28
2023-04-26T05:08:01.471Z,33.30
2023-04-26T05:09:01.586Z,33.27
2023-04-26T05:10:02.059Z,33.28
2023-04-26T05:11:01.653Z,33.26
2023-04-26T05:12:01.650Z,33.26
2023-04-26T05:13:01.690Z,33.25
2023-04-26T05:14:01.732Z,33.28
2023-04-26T05:15:01.822Z,33.25
2023-04-26T05:16:01.918Z,33.25
2023-04-26T05:17:01.913Z,33.25
2023-04-26T05:18:02.160Z,33.22
2023-04-26T05:19:02.009Z,33.24
2023-04-26T05:20:02.069Z,33.22
2023-04-26T05:21:02.141Z,33.21
2023-04-26T05:22:02.170Z,33.24
2023-04-26T05:23:02.246Z,33.21
2023-04-26T05:24:02.272Z,33.21
2023-04-26T05:25:02.316Z,33.20
2023-04-26T05:26:02.367Z,33.22
2023-04-26T05:27:02.418Z,33.20
2023-04-26T05:28:02.455Z,33.22
2023-04-26T05:29:02.529Z,33.19
2023-04-26T05:30:02.625Z,33.19
2023-04-26T05:31:02.648Z,33.20
2023-04-26T05:32:02.774Z,33.21
2023-04-26T05:33:02.846Z,33.17
2023-04-26T05:34:02.830Z,33.19
2023-04-26T05:35:02.848Z,33.17
2023-04-26T05:36:02.887Z,33.16
2023-04-26T05:37:02.892Z,33.15
2023-04-26T05:38:02.965Z,33.15
2023-04-26T05:39:03.015Z,33.15
2023-04-26T05:40:03.556Z,33.13
2023-04-26T05:41:03.089Z,33.13
2023-04-26T05:42:03.124Z,33.14
2023-04-26T05:43:03.164Z,33.12
2023-04-26T05:44:03.206Z,33.14
2023-04-26T05:45:03.517Z,33.15
2023-04-26T05:46:03.445Z,33.14
2023-04-26T05:47:03.401Z,33.14
2023-04-26T05:48:03.459Z,33.12
2023-04-26T05:49:03.557Z,33.14
2023-04-26T05:50:03.570Z,33.13
2023-04-26T05:51:03.565Z,33.21
2023-04-26T05:52:03.613Z,33.23
2023-04-26T05:53:03.615Z,33.61
2023-04-26T05:54:03.611Z,34.28
2023-04-26T05:55:04.039Z,34.27
2023-04-26T05:56:03.743Z,34.48
2023-04-26T05:57:03.924Z,34.42
2023-04-26T05:58:03.858Z,34.36
2023-04-26T05:59:03.922Z,34.64
2023-04-26T06:00:04.046Z,34.72
2023-04-26T06:01:04.057Z,34.86
2023-04-26T06:02:04.238Z,35.12
2023-04-26T06:03:04.415Z,35.34
2023-04-26T06:04:04.672Z,35.63
2023-04-26T06:05:04.806Z,35.72
2023-04-26T06:06:04.384Z,35.68
2023-04-26T06:07:04.437Z,35.88
2023-04-26T06:08:04.473Z,35.94
2023-04-26T06:09:04.561Z,36.16
2023-04-26T06:10:05.050Z,36.44
2023-04-26T06:11:04.639Z,36.67
2023-04-26T06:12:05.612Z,36.73
2023-04-26T06:13:04.607Z,36.79
2023-04-26T06:14:04.608Z,36.87
2023-04-26T06:15:04.598Z,36.93
2023-04-26T06:16:04.601Z,37.05
2023-04-26T06:17:04.609Z,37.06
2023-04-26T06:18:04.634Z,37.12
2023-04-26T06:19:04.550Z,37.10
2023-04-26T06:20:05.071Z,37.14
2023-04-26T06:21:04.544Z,37.13
2023-04-26T06:22:04.541Z,37.20
2023-04-26T06:23:04.536Z,37.21
2023-04-26T06:24:04.545Z,37.23
2023-04-26T06:25:04.554Z,37.26
2023-04-26T06:26:04.532Z,37.25
2023-04-26T06:27:04.557Z,37.29
2023-04-26T06:28:04.529Z,37.19
2023-04-26T06:29:04.560Z,37.18
2023-04-26T06:30:05.061Z,37.11
2023-04-26T06:31:04.545Z,37.10
2023-04-26T06:32:04.577Z,37.15
2023-04-26T06:33:04.666Z,37.20
2023-04-26T06:34:04.694Z,37.23
2023-04-26T06:35:04.551Z,37.25
2023-04-26T06:36:04.562Z,37.28
2023-04-26T06:37:04.867Z,37.26
2023-04-26T06:38:04.592Z,37.23
2023-04-26T06:39:04.618Z,37.23
2023-04-26T06:40:04.615Z,37.26
2023-04-26T06:41:04.673Z,37.23
2023-04-26T06:42:04.700Z,37.28
2023-04-26T06:43:04.752Z,37.25
2023-04-26T06:44:04.781Z,37.22
2023-04-26T06:45:04.796Z,37.20
2023-04-26T06:46:04.888Z,37.23
2023-04-26T06:47:04.936Z,37.18
2023-04-26T06:48:05.042Z,37.17
2023-04-26T06:49:05.051Z,37.18
2023-04-26T06:50:05.205Z,37.15
2023-04-26T06:51:05.173Z,36.32
2023-04-26T06:52:05.218Z,36.69
2023-04-26T06:53:05.200Z,36.74
2023-04-26T06:54:05.416Z,36.79
2023-04-26T06:55:05.225Z,36.76
2023-04-26T06:56:05.275Z,36.67
2023-04-26T06:57:05.270Z,34.33
2023-04-26T06:58:05.306Z,33.93
2023-04-26T06:59:05.352Z,32.51
2023-04-26T07:00:05.543Z,33.84
2023-04-26T07:01:05.396Z,34.54
2023-04-26T07:02:05.458Z,34.40
2023-04-26T07:03:05.617Z,34.18
2023-04-26T07:04:05.507Z,34.32
2023-04-26T07:05:05.648Z,34.59
2023-04-26T07:06:05.475Z,34.62
2023-04-26T07:07:05.533Z,34.83
2023-04-26T07:08:05.537Z,34.88
2023-04-26T07:09:05.578Z,34.97
2023-04-26T07:10:06.061Z,34.97
2023-04-26T07:11:05.632Z,35.01
2023-04-26T07:12:05.673Z,35.02
2023-04-26T07:13:06.779Z,35.11
2023-04-26T07:14:05.713Z,35.19
2023-04-26T07:15:05.734Z,35.20
2023-04-26T07:16:05.836Z,35.23
2023-04-26T07:17:05.778Z,35.26
2023-04-26T07:18:05.825Z,35.31
2023-04-26T07:19:05.744Z,35.27
2023-04-26T07:20:05.777Z,35.27
2023-04-26T07:21:06.080Z,35.34
2023-04-26T07:22:05.830Z,35.38
2023-04-26T07:23:05.956Z,35.44
2023-04-26T07:24:05.921Z,35.46
2023-04-26T07:25:05.994Z,35.49
2023-04-26T07:26:06.132Z,35.47
2023-04-26T07:27:06.120Z,35.48
2023-04-26T07:28:06.198Z,35.50
2023-04-26T07:29:06.249Z,35.51
2023-04-26T07:30:06.313Z,35.57
2023-04-26T07:31:08.773Z,35.57
2023-04-26T07:32:06.360Z,35.55
2023-04-26T07:33:06.431Z,35.58
2023-04-26T07:34:06.334Z,35.59
2023-04-26T07:35:06.293Z,35.62
2023-04-26T07:36:06.604Z,35.72
2023-04-26T07:37:06.317Z,35.76
2023-04-26T07:38:06.260Z,35.78
2023-04-26T07:39:06.279Z,35.87
2023-04-26T07:40:06.246Z,35.82
2023-04-26T07:41:06.293Z,35.85
2023-04-26T07:42:06.253Z,35.91
2023-04-26T07:43:06.242Z,35.94
2023-04-26T07:44:06.242Z,36.00
2023-04-26T07:45:06.228Z,36.00
2023-04-26T07:46:07.749Z,36.02
2023-04-26T07:47:06.177Z,34.17
2023-04-26T07:48:06.274Z,35.24
2023-04-26T07:49:06.236Z,35.18
2023-04-26T07:50:06.212Z,33.93
2023-04-26T07:51:06.192Z,33.46
2023-04-26T07:52:06.198Z,32.29
2023-04-26T07:53:06.233Z,32.57
2023-04-26T07:54:06.367Z,32.96
2023-04-26T07:55:06.134Z,33.19
2023-04-26T07:56:06.181Z,32.89
2023-04-26T07:57:06.162Z,32.93
2023-04-26T07:58:06.148Z,32.90
2023-04-26T07:59:06.122Z,33.35
2023-04-26T08:00:06.154Z,33.67
2023-04-26T08:01:06.142Z,32.86
2023-04-26T08:02:06.152Z,33.12
2023-04-26T08:03:06.198Z,33.30
2023-04-26T08:04:06.193Z,33.19
2023-04-26T08:05:06.279Z,33.57
2023-04-26T08:06:06.735Z,33.66
2023-04-26T08:07:06.078Z,33.66
2023-04-26T08:08:06.077Z,33.57
2023-04-26T08:09:06.074Z,33.48
2023-04-26T08:10:06.079Z,33.55
2023-04-26T08:11:06.099Z,33.35
2023-04-26T08:12:06.076Z,33.31
2023-04-26T08:13:06.048Z,33.20
2023-04-26T08:14:06.062Z,33.43
2023-04-26T08:15:06.105Z,33.45
2023-04-26T08:16:06.606Z,33.41
2023-04-26T08:17:06.184Z,33.34
2023-04-26T08:18:06.227Z,33.30
2023-04-26T08:19:06.126Z,33.17
2023-04-26T08:20:06.156Z,31.38
2023-04-26T08:21:06.584Z,31.84
2023-04-26T08:22:06.211Z,32.34
2023-04-26T08:23:06.232Z,32.66
2023-04-26T08:24:06.284Z,32.71
2023-04-26T08:25:06.258Z,32.64
2023-04-26T08:26:06.766Z,32.52
2023-04-26T08:27:06.338Z,32.51
2023-04-26T08:28:06.339Z,32.49
2023-04-26T08:29:06.345Z,32.35
2023-04-26T08:30:06.412Z,31.83
2023-04-26T08:31:06.513Z,31.42
2023-04-26T08:32:06.500Z,30.44
2023-04-26T08:33:06.542Z,30.73
2023-04-26T08:34:06.550Z,30.27
2023-04-26T08:35:06.610Z,30.57
2023-04-26T08:36:08.620Z,30.61
2023-04-26T08:37:06.604Z,30.47
2023-04-26T08:38:06.567Z,30.02
2023-04-26T08:39:06.610Z,28.82
2023-04-26T08:40:06.656Z,29.35
2023-04-26T08:41:07.128Z,29.69
2023-04-26T08:42:06.784Z,29.95
2023-04-26T08:43:06.848Z,30.58
2023-04-26T08:44:06.845Z,30.67
2023-04-26T08:45:06.949Z,30.35
2023-04-26T08:46:07.088Z,29.90
2023-04-26T08:47:06.972Z,27.78
2023-04-26T08:48:07.030Z,29.12
2023-04-26T08:49:06.990Z,29.96
2023-04-26T08:50:06.986Z,30.64
2023-04-26T08:51:07.088Z,30.66
2023-04-26T08:52:07.116Z,30.80
2023-04-26T08:53:07.152Z,30.90
2023-04-26T08:54:07.221Z,30.97
2023-04-26T08:55:07.274Z,30.92
2023-04-26T08:56:07.595Z,30.96
2023-04-26T08:57:07.252Z,30.91
2023-04-26T08:58:07.279Z,30.73
2023-04-26T08:59:07.308Z,30.79
2023-04-26T09:00:07.319Z,30.83
2023-04-26T09:01:07.323Z,30.85
2023-04-26T09:02:07.523Z,30.88
2023-04-26T09:03:07.564Z,30.89
2023-04-26T09:04:07.660Z,30.91
2023-04-26T09:05:07.709Z,30.94
2023-04-26T09:06:08.105Z,30.91
2023-04-26T09:07:07.705Z,30.97
2023-04-26T09:08:07.748Z,30.92
2023-04-26T09:09:07.797Z,30.94
2023-04-26T09:10:07.869Z,30.98
2023-04-26T09:11:08.123Z,30.96
2023-04-26T09:12:07.950Z,31.05
2023-04-26T09:13:07.919Z,31.09
2023-04-26T09:14:07.942Z,31.12
2023-04-26T09:15:07.909Z,31.14
2023-04-26T09:16:07.954Z,31.17
2023-04-26T09:17:07.953Z,31.21
2023-04-26T09:18:07.968Z,31.29
2023-04-26T09:19:07.953Z,31.26
2023-04-26T09:20:08.214Z,31.29
2023-04-26T09:21:07.986Z,31.27
2023-04-26T09:22:07.926Z,31.37
2023-04-26T09:23:07.925Z,31.30
2023-04-26T09:24:07.943Z,31.34
2023-04-26T09:25:07.929Z,31.33
2023-04-26T09:26:07.937Z,31.33
2023-04-26T09:27:07.954Z,31.34
2023-04-26T09:28:07.926Z,31.33
2023-04-26T09:29:07.984Z,31.35
2023-04-26T09:30:08.047Z,31.33
2023-04-26T09:31:08.177Z,31.41
2023-04-26T09:32:08.064Z,31.42
2023-04-26T09:33:08.018Z,31.34
2023-04-26T09:34:08.048Z,31.35
2023-04-26T09:35:08.035Z,31.38
2023-04-26T09:36:08.138Z,31.42
2023-04-26T09:37:08.055Z,31.38
2023-04-26T09:38:12.292Z,31.49
2023-04-26T09:39:08.041Z,31.46
2023-04-26T09:40:08.060Z,31.49
2023-04-26T09:41:08.091Z,31.61
2023-04-26T09:42:08.036Z,31.50
2023-04-26T09:43:08.037Z,31.44
2023-04-26T09:44:08.022Z,31.49
2023-04-26T09:45:08.024Z,31.48
2023-04-26T09:46:08.128Z,31.41
2023-04-26T09:47:08.087Z,31.43
2023-04-26T09:48:08.006Z,31.39
2023-04-26T09:49:08.000Z,31.40
2023-04-26T09:50:07.983Z,31.49
2023-04-26T09:51:07.964Z,31.68
2023-04-26T09:52:07.998Z,32.30
2023-04-26T09:53:07.968Z,32.21
2023-04-26T09:54:07.968Z,32.64
2023-04-26T09:55:07.937Z,33.22
2023-04-26T09:56:08.141Z,33.70
2023-04-26T09:57:07.927Z,34.12
2023-04-26T09:58:07.924Z,33.07
2023-04-26T09:59:07.937Z,34.59
2023-04-26T10:00:07.913Z,34.39
2023-04-26T10:01:08.013Z,34.32
2023-04-26T10:02:07.892Z,35.45
2023-04-26T10:03:08.141Z,34.62
2023-04-26T10:04:07.961Z,34.86
2023-04-26T10:05:07.891Z,35.44
2023-04-26T10:06:07.878Z,35.74
2023-04-26T10:07:07.927Z,36.02
2023-04-26T10:08:07.959Z,35.98
2023-04-26T10:09:08.003Z,36.87
2023-04-26T10:10:07.999Z,37.40
2023-04-26T10:11:08.103Z,37.66
2023-04-26T10:12:08.116Z,37.92
2023-04-26T10:13:08.132Z,38.49
2023-04-26T10:14:08.125Z,38.58
2023-04-26T10:15:08.223Z,39.44
2023-04-26T10:16:08.670Z,38.76
2023-04-26T10:17:08.226Z,39.36
2023-04-26T10:18:08.268Z,39.46
2023-04-26T10:19:08.259Z,40.35
2023-04-26T10:20:08.247Z,41.12
2023-04-26T10:21:08.283Z,40.28
2023-04-26T10:22:08.261Z,41.01
2023-04-26T10:23:08.363Z,40.92
2023-04-26T10:24:08.288Z,41.10
2023-04-26T10:25:08.321Z,41.18
2023-04-26T10:26:08.632Z,40.28
2023-04-26T10:27:08.325Z,40.10
2023-04-26T10:28:08.294Z,40.88
2023-04-26T10:29:08.522Z,41.07
2023-04-26T10:30:08.360Z,41.22
2023-04-26T10:31:08.672Z,41.28
2023-04-26T10:32:08.743Z,41.17
2023-04-26T10:33:08.596Z,41.03
2023-04-26T10:34:10.268Z,41.12
2023-04-26T10:35:08.563Z,40.94
2023-04-26T10:36:08.630Z,40.95
2023-04-26T10:37:08.591Z,40.99
2023-04-26T10:38:08.541Z,40.87
2023-04-26T10:39:08.566Z,40.53
2023-04-26T10:40:08.587Z,40.55
2023-04-26T10:41:08.658Z,40.42
2023-04-26T10:42:08.586Z,40.36
2023-04-26T10:43:08.529Z,40.25
2023-04-26T10:44:08.492Z,40.32
2023-04-26T10:45:08.540Z,40.19
2023-04-26T10:46:08.688Z,40.16
2023-04-26T10:47:08.529Z,40.07
2023-04-26T10:48:08.544Z,39.98
2023-04-26T10:49:08.459Z,39.87
2023-04-26T10:50:08.542Z,39.92
2023-04-26T10:51:08.744Z,39.91
2023-04-26T10:52:08.452Z,39.90
2023-04-26T10:53:08.457Z,39.96
2023-04-26T10:54:08.460Z,39.94
2023-04-26T10:55:08.438Z,39.92
2023-04-26T10:56:08.649Z,39.88
2023-04-26T10:57:08.423Z,39.81
2023-04-26T10:58:08.411Z,39.77
2023-04-26T10:59:22.639Z,39.71
2023-04-26T11:00:09.415Z,39.64
2023-04-26T11:01:08.456Z,39.65
2023-04-26T11:02:08.419Z,39.54
2023-04-26T11:03:08.518Z,39.52
2023-04-26T11:04:08.566Z,39.49
2023-04-26T11:05:08.429Z,39.44
2023-04-26T11:06:08.706Z,39.42
2023-04-26T11:07:08.386Z,39.35
2023-04-26T11:08:08.321Z,39.30
2023-04-26T11:09:08.328Z,39.27
2023-04-26T11:10:08.367Z,39.25
2023-04-26T11:11:08.445Z,39.15
2023-04-26T11:12:08.463Z,39.15
2023-04-26T11:13:08.525Z,39.08
2023-04-26T11:14:08.561Z,39.01
2023-04-26T11:15:08.567Z,39.01
2023-04-26T11:16:08.752Z,38.98
2023-04-26T11:17:08.592Z,38.92
2023-04-26T11:18:08.616Z,38.91
2023-04-26T11:19:08.602Z,38.81
2023-04-26T11:20:08.594Z,38.81
2023-04-26T11:21:08.594Z,38.75
2023-04-26T11:22:08.579Z,38.75
2023-04-26T11:23:08.577Z,38.67
2023-04-26T11:24:08.591Z,38.64
2023-04-26T11:25:08.611Z,38.55
2023-04-26T11:26:08.855Z,38.51
2023-04-26T11:27:09.573Z,38.48
2023-04-26T11:28:08.594Z,38.40
2023-04-26T11:29:08.570Z,38.37
2023-04-26T11:30:08.561Z,38.37
2023-04-26T11:31:08.752Z,38.33
2023-04-26T11:32:08.558Z,38.34
2023-04-26T11:33:08.556Z,38.27
2023-04-26T11:34:08.546Z,38.28
2023-04-26T11:35:08.536Z,38.32
2023-04-26T11:36:08.656Z,38.28
2023-04-26T11:37:08.545Z,38.26
2023-04-26T11:38:08.542Z,38.21
2023-04-26T11:39:08.492Z,38.22
2023-04-26T11:40:08.476Z,38.23
2023-04-26T11:41:08.506Z,38.18
2023-04-26T11:42:08.511Z,38.17
2023-04-26T11:43:08.495Z,38.12
2023-04-26T11:44:08.675Z,38.12
2023-04-26T11:45:08.473Z,38.09
2023-04-26T11:46:08.560Z,38.08
2023-04-26T11:47:08.619Z,38.08
2023-04-26T11:48:08.485Z,38.06
2023-04-26T11:49:08.454Z,38.06
2023-04-26T11:50:08.394Z,38.05
2023-04-26T11:51:08.470Z,38.04
2023-04-26T11:52:08.653Z,38.01
2023-04-26T11:53:08.438Z,38.02
2023-04-26T11:54:08.423Z,38.00
2023-04-26T11:55:08.484Z,38.00
2023-04-26T11:56:08.413Z,37.99
2023-04-26T11:57:08.409Z,37.95
2023-04-26T11:58:08.366Z,37.93
2023-04-26T11:59:08.405Z,37.88
2023-04-26T12:00:08.396Z,37.92
2023-04-26T12:01:08.387Z,37.92
2023-04-26T12:02:08.464Z,37.87
2023-04-26T12:03:08.556Z,37.88
2023-04-26T12:04:08.620Z,37.86
2023-04-26T12:05:08.668Z,37.82
2023-04-26T12:06:08.434Z,37.82
2023-04-26T12:07:08.450Z,37.77
2023-04-26T12:08:08.464Z,37.80
2023-04-26T12:09:08.517Z,37.77
2023-04-26T12:10:08.496Z,37.75
2023-04-26T12:11:08.528Z,37.77
2023-04-26T12:12:08.529Z,37.73
2023-04-26T12:13:08.548Z,37.73
2023-04-26T12:14:08.553Z,37.69
2023-04-26T12:15:08.549Z,37.68
2023-04-26T12:16:18.500Z,37.67
2023-04-26T12:17:09.609Z,37.63
2023-04-26T12:18:08.639Z,37.63
2023-04-26T12:19:08.572Z,37.61
2023-04-26T12:20:08.558Z,37.62
2023-04-26T12:21:08.539Z,37.58
2023-04-26T12:22:08.569Z,37.58
2023-04-26T12:23:08.578Z,37.60
2023-04-26T12:24:08.535Z,37.58
2023-04-26T12:25:08.541Z,37.58
2023-04-26T12:26:08.652Z,37.57
2023-04-26T12:27:08.499Z,37.54
2023-04-26T12:28:08.512Z,37.53
2023-04-26T12:29:08.485Z,37.54
2023-04-26T12:30:08.518Z,37.50
2023-04-26T12:31:08.742Z,37.51
2023-04-26T12:32:08.677Z,37.49
2023-04-26T12:33:16.985Z,37.47
2023-04-26T12:34:09.492Z,37.51
2023-04-26T12:35:08.468Z,37.47
2023-04-26T12:36:08.463Z,37.45
2023-04-26T12:37:08.678Z,37.47
2023-04-26T12:38:08.441Z,37.42
2023-04-26T12:39:08.431Z,37.41
2023-04-26T12:40:08.432Z,37.42
2023-04-26T12:41:08.439Z,37.37
2023-04-26T12:42:08.403Z,37.37
2023-04-26T12:43:08.403Z,37.37
2023-04-26T12:44:08.413Z,37.34
2023-04-26T12:45:08.431Z,37.32
2023-04-26T12:46:08.423Z,37.34
2023-04-26T12:47:08.390Z,37.31
2023-04-26T12:48:08.408Z,37.27
2023-04-26T12:49:08.396Z,37.27
2023-04-26T12:50:08.396Z,37.24
2023-04-26T12:51:08.418Z,37.19
2023-04-26T12:52:08.469Z,37.20
2023-04-26T12:53:08.474Z,37.18